sensor_id;sensor_type;location;lat;lon;timestamp;temperature;humidity
72865;DHT22;61000;48.120;11.548;2024-03-07T00:01:07;3.90;99.90
72865;DHT22;61000;48.120;11.548;2024-03-07T00:03:34;3.90;99.90
72865;DHT22;61000;48.120;11.548;2024-03-07T00:06:01;3.90;99.90
72865;DHT22;61000;48.120;11.548;2024-03-07T00:08:29;3.90;99.90
72865;DHT22;61000;48.120;11.548;2024-03-07T00:10:56;3.90;99.90
72865;DHT22;61000;48.120;11.548;2024-03-07T00:13:23;3.90;99.90
72865;DHT22;61000;48.120;11.548;2024-03-07T00:15:51;3.90;99.90
72865;DHT22;61000;48.120;11.548;2024-03-07T00:18:19;3.90;99.90
72865;DHT22;61000;48.120;11.548;2024-03-07T00:20:46;3.80;99.90
72865;DHT22;61000;48.120;11.548;2024-03-07T00:23:12;3.90;99.90
72865;DHT22;61000;48.120;11.548;2024-03-07T00:25:39;3.80;99.90
72865;DHT22;61000;48.120;11.548;2024-03-07T00:28:06;3.80;99.90
72865;DHT22;61000;48.120;11.548;2024-03-07T00:30:33;3.90;99.90
72865;DHT22;61000;48.120;11.548;2024-03-07T00:33:01;3.90;99.90
72865;DHT22;61000;48.120;11.548;2024-03-07T00:35:28;3.80;99.90
72865;DHT22;61000;48.120;11.548;2024-03-07T00:37:56;3.80;99.90
72865;DHT22;61000;48.120;11.548;2024-03-07T00:40:23;3.80;99.90
72865;DHT22;61000;48.120;11.548;2024-03-07T00:42:50;3.90;99.90
72865;DHT22;61000;48.120;11.548;2024-03-07T00:45:16;3.90;99.90
72865;DHT22;61000;48.120;11.548;2024-03-07T00:47:44;3.80;99.90
72865;DHT22;61000;48.120;11.548;2024-03-07T00:50:12;3.90;99.90
72865;DHT22;61000;48.120;11.548;2024-03-07T00:52:39;3.80;99.90
72865;DHT22;61000;48.120;11.548;2024-03-07T00:55:07;3.90;99.90
72865;DHT22;61000;48.120;11.548;2024-03-07T00:57:34;3.80;99.90
72865;DHT22;61000;48.120;11.548;2024-03-07T01:00:02;3.90;99.90
72865;DHT22;61000;48.120;11.548;2024-03-07T01:02:29;3.90;99.90
72865;DHT22;61000;48.120;11.548;2024-03-07T01:04:56;3.90;99.90
72865;DHT22;61000;48.120;11.548;2024-03-07T01:07:25;3.90;99.90
72865;DHT22;61000;48.120;11.548;2024-03-07T01:09:53;3.90;99.90
72865;DHT22;61000;48.120;11.548;2024-03-07T01:12:20;3.90;99.90
72865;DHT22;61000;48.120;11.548;2024-03-07T01:14:49;3.90;99.90
72865;DHT22;61000;48.120;11.548;2024-03-07T01:17:16;3.90;99.90
72865;DHT22;61000;48.120;11.548;2024-03-07T01:19:43;3.90;99.90
72865;DHT22;61000;48.120;11.548;2024-03-07T01:22:10;3.90;99.90
72865;DHT22;61000;48.120;11.548;2024-03-07T01:24:38;3.90;99.90
72865;DHT22;61000;48.120;11.548;2024-03-07T01:27:05;3.90;99.90
72865;DHT22;61000;48.120;11.548;2024-03-07T01:29:33;3.90;99.90
72865;DHT22;61000;48.120;11.548;2024-03-07T01:32:00;3.90;99.90
72865;DHT22;61000;48.120;11.548;2024-03-07T01:34:28;4.00;99.90
72865;DHT22;61000;48.120;11.548;2024-03-07T01:36:55;4.00;99.90
72865;DHT22;61000;48.120;11.548;2024-03-07T01:39:22;3.90;99.90
72865;DHT22;61000;48.120;11.548;2024-03-07T01:41:50;4.00;99.90
72865;DHT22;61000;48.120;11.548;2024-03-07T01:44:17;3.90;99.90
72865;DHT22;61000;48.120;11.548;2024-03-07T01:46:44;3.90;99.90
72865;DHT22;61000;48.120;11.548;2024-03-07T01:49:11;3.90;99.90
72865;DHT22;61000;48.120;11.548;2024-03-07T01:51:39;3.90;99.90
72865;DHT22;61000;48.120;11.548;2024-03-07T01:54:08;4.00;99.90
72865;DHT22;61000;48.120;11.548;2024-03-07T01:56:36;4.00;99.90
72865;DHT22;61000;48.120;11.548;2024-03-07T01:59:05;4.00;99.90
72865;DHT22;61000;48.120;11.548;2024-03-07T02:01:33;3.90;99.90
72865;DHT22;61000;48.120;11.548;2024-03-07T02:04:02;4.00;99.90
72865;DHT22;61000;48.120;11.548;2024-03-07T02:06:30;4.00;99.90
72865;DHT22;61000;48.120;11.548;2024-03-07T02:08:57;3.90;99.90
72865;DHT22;61000;48.120;11.548;2024-03-07T02:11:23;3.90;99.90
72865;DHT22;61000;48.120;11.548;2024-03-07T02:13:50;4.00;99.90
72865;DHT22;61000;48.120;11.548;2024-03-07T02:16:19;3.90;99.90
72865;DHT22;61000;48.120;11.548;2024-03-07T02:18:46;4.00;99.90
72865;DHT22;61000;48.120;11.548;2024-03-07T02:21:15;4.00;99.90
72865;DHT22;61000;48.120;11.548;2024-03-07T02:23:42;4.00;99.90
72865;DHT22;61000;48.120;11.548;2024-03-07T02:26:09;3.90;99.90
72865;DHT22;61000;48.120;11.548;2024-03-07T02:28:36;4.00;99.90
72865;DHT22;61000;48.120;11.548;2024-03-07T02:31:03;4.00;99.90
72865;DHT22;61000;48.120;11.548;2024-03-07T02:33:30;4.00;99.90
72865;DHT22;61000;48.120;11.548;2024-03-07T02:35:57;4.00;99.90
72865;DHT22;61000;48.120;11.548;2024-03-07T02:38:26;4.00;99.90
72865;DHT22;61000;48.120;11.548;2024-03-07T02:40:52;4.00;99.90
72865;DHT22;61000;48.120;11.548;2024-03-07T02:43:19;4.00;99.90
72865;DHT22;61000;48.120;11.548;2024-03-07T02:45:46;4.00;99.90
72865;DHT22;61000;48.120;11.548;2024-03-07T02:48:15;4.00;99.90
72865;DHT22;61000;48.120;11.548;2024-03-07T02:50:44;4.00;99.90
72865;DHT22;61000;48.120;11.548;2024-03-07T02:53:11;4.00;99.90
72865;DHT22;61000;48.120;11.548;2024-03-07T02:55:39;3.90;99.90
72865;DHT22;61000;48.120;11.548;2024-03-07T02:58:07;4.00;99.90
72865;DHT22;61000;48.120;11.548;2024-03-07T03:00:33;4.00;99.90
72865;DHT22;61000;48.120;11.548;2024-03-07T03:03:00;4.10;99.90
72865;DHT22;61000;48.120;11.548;2024-03-07T03:05:27;4.10;99.90
72865;DHT22;61000;48.120;11.548;2024-03-07T03:07:55;4.10;99.90
72865;DHT22;61000;48.120;11.548;2024-03-07T03:10:23;4.00;99.90
72865;DHT22;61000;48.120;11.548;2024-03-07T03:12:53;4.10;99.90
72865;DHT22;61000;48.120;11.548;2024-03-07T03:15:21;4.10;99.90
72865;DHT22;61000;48.120;11.548;2024-03-07T03:17:48;4.10;99.90
72865;DHT22;61000;48.120;11.548;2024-03-07T03:20:15;4.10;99.90
72865;DHT22;61000;48.120;11.548;2024-03-07T03:22:51;4.10;99.90
72865;DHT22;61000;48.120;11.548;2024-03-07T03:25:18;4.10;99.90
72865;DHT22;61000;48.120;11.548;2024-03-07T03:27:45;4.10;99.90
72865;DHT22;61000;48.120;11.548;2024-03-07T03:30:14;4.10;99.90
72865;DHT22;61000;48.120;11.548;2024-03-07T03:32:44;4.00;99.90
72865;DHT22;61000;48.120;11.548;2024-03-07T03:35:11;4.10;99.90
72865;DHT22;61000;48.120;11.548;2024-03-07T03:37:40;4.10;99.90
72865;DHT22;61000;48.120;11.548;2024-03-07T03:40:08;4.10;99.90
72865;DHT22;61000;48.120;11.548;2024-03-07T03:42:36;4.00;99.90
72865;DHT22;61000;48.120;11.548;2024-03-07T03:45:04;4.00;99.90
72865;DHT22;61000;48.120;11.548;2024-03-07T03:47:35;4.10;99.90
72865;DHT22;61000;48.120;11.548;2024-03-07T03:50:06;4.10;99.90
72865;DHT22;61000;48.120;11.548;2024-03-07T03:52:33;4.10;99.90
72865;DHT22;61000;48.120;11.548;2024-03-07T03:55:01;4.00;99.90
72865;DHT22;61000;48.120;11.548;2024-03-07T03:57:28;4.10;99.90
72865;DHT22;61000;48.120;11.548;2024-03-07T03:59:56;4.10;99.90
72865;DHT22;61000;48.120;11.548;2024-03-07T04:02:23;4.10;99.90
72865;DHT22;61000;48.120;11.548;2024-03-07T04:04:52;4.10;99.90
72865;DHT22;61000;48.120;11.548;2024-03-07T04:07:19;4.10;99.90
72865;DHT22;61000;48.120;11.548;2024-03-07T04:09:46;4.00;99.90
72865;DHT22;61000;48.120;11.548;2024-03-07T04:12:13;4.00;99.90
72865;DHT22;61000;48.120;11.548;2024-03-07T04:14:41;4.10;99.90
72865;DHT22;61000;48.120;11.548;2024-03-07T04:17:08;4.00;99.90
72865;DHT22;61000;48.120;11.548;2024-03-07T04:19:38;4.00;99.90
72865;DHT22;61000;48.120;11.548;2024-03-07T04:22:07;4.00;99.90
72865;DHT22;61000;48.120;11.548;2024-03-07T04:24:34;4.00;99.90
72865;DHT22;61000;48.120;11.548;2024-03-07T04:27:02;3.90;99.90
72865;DHT22;61000;48.120;11.548;2024-03-07T04:29:30;3.90;99.90
72865;DHT22;61000;48.120;11.548;2024-03-07T04:31:56;3.90;99.90
72865;DHT22;61000;48.120;11.548;2024-03-07T04:34:23;3.90;99.90
72865;DHT22;61000;48.120;11.548;2024-03-07T04:36:50;3.80;99.90
72865;DHT22;61000;48.120;11.548;2024-03-07T04:39:18;3.80;99.90
72865;DHT22;61000;48.120;11.548;2024-03-07T04:41:56;3.80;99.90
72865;DHT22;61000;48.120;11.548;2024-03-07T04:44:23;3.80;99.90
72865;DHT22;61000;48.120;11.548;2024-03-07T04:46:50;3.80;99.90
72865;DHT22;61000;48.120;11.548;2024-03-07T04:49:21;3.80;99.90
72865;DHT22;61000;48.120;11.548;2024-03-07T04:51:48;3.80;99.90
72865;DHT22;61000;48.120;11.548;2024-03-07T04:54:15;3.80;99.90
72865;DHT22;61000;48.120;11.548;2024-03-07T04:56:44;3.80;99.90
72865;DHT22;61000;48.120;11.548;2024-03-07T04:59:11;3.70;99.90
72865;DHT22;61000;48.120;11.548;2024-03-07T05:01:38;3.70;99.90
72865;DHT22;61000;48.120;11.548;2024-03-07T05:04:05;3.70;99.90
72865;DHT22;61000;48.120;11.548;2024-03-07T05:06:32;3.70;99.90
72865;DHT22;61000;48.120;11.548;2024-03-07T05:09:00;3.60;99.90
72865;DHT22;61000;48.120;11.548;2024-03-07T05:11:28;3.60;99.90
72865;DHT22;61000;48.120;11.548;2024-03-07T05:13:56;3.70;99.90
72865;DHT22;61000;48.120;11.548;2024-03-07T05:16:24;3.70;99.90
72865;DHT22;61000;48.120;11.548;2024-03-07T05:18:51;3.70;99.90
72865;DHT22;61000;48.120;11.548;2024-03-07T05:21:18;3.70;99.90
72865;DHT22;61000;48.120;11.548;2024-03-07T05:24:04;3.70;99.90
72865;DHT22;61000;48.120;11.548;2024-03-07T05:26:31;3.70;99.90
72865;DHT22;61000;48.120;11.548;2024-03-07T05:29:02;3.60;99.90
72865;DHT22;61000;48.120;11.548;2024-03-07T05:31:33;3.60;99.90
72865;DHT22;61000;48.120;11.548;2024-03-07T05:34:01;3.60;99.90
72865;DHT22;61000;48.120;11.548;2024-03-07T05:36:30;3.60;99.90
72865;DHT22;61000;48.120;11.548;2024-03-07T05:38:57;3.60;99.90
72865;DHT22;61000;48.120;11.548;2024-03-07T05:41:25;3.60;99.90
72865;DHT22;61000;48.120;11.548;2024-03-07T05:43:55;3.50;99.90
72865;DHT22;61000;48.120;11.548;2024-03-07T05:46:23;3.60;99.90
72865;DHT22;61000;48.120;11.548;2024-03-07T05:48:50;3.50;99.90
72865;DHT22;61000;48.120;11.548;2024-03-07T05:51:22;3.40;99.90
72865;DHT22;61000;48.120;11.548;2024-03-07T05:53:49;3.40;99.90
72865;DHT22;61000;48.120;11.548;2024-03-07T05:56:16;3.40;99.90
72865;DHT22;61000;48.120;11.548;2024-03-07T05:58:43;3.40;99.90
72865;DHT22;61000;48.120;11.548;2024-03-07T06:01:10;3.40;99.90
72865;DHT22;61000;48.120;11.548;2024-03-07T06:03:39;3.40;99.90
72865;DHT22;61000;48.120;11.548;2024-03-07T06:06:06;3.30;99.90
72865;DHT22;61000;48.120;11.548;2024-03-07T06:08:37;3.30;99.90
72865;DHT22;61000;48.120;11.548;2024-03-07T06:11:04;3.20;99.90
72865;DHT22;61000;48.120;11.548;2024-03-07T06:13:31;3.20;99.90
72865;DHT22;61000;48.120;11.548;2024-03-07T06:15:58;3.20;99.90
72865;DHT22;61000;48.120;11.548;2024-03-07T06:18:27;3.20;99.90
72865;DHT22;61000;48.120;11.548;2024-03-07T06:20:58;3.20;99.90
72865;DHT22;61000;48.120;11.548;2024-03-07T06:23:25;3.20;99.90
72865;DHT22;61000;48.120;11.548;2024-03-07T06:25:54;3.30;99.90
72865;DHT22;61000;48.120;11.548;2024-03-07T06:28:24;3.30;99.90
72865;DHT22;61000;48.120;11.548;2024-03-07T06:30:51;3.30;99.90
72865;DHT22;61000;48.120;11.548;2024-03-07T06:33:17;3.30;99.90
72865;DHT22;61000;48.120;11.548;2024-03-07T06:35:45;3.30;99.90
72865;DHT22;61000;48.120;11.548;2024-03-07T06:38:13;3.40;99.90
72865;DHT22;61000;48.120;11.548;2024-03-07T06:40:41;3.40;99.90
72865;DHT22;61000;48.120;11.548;2024-03-07T06:43:09;3.40;99.90
72865;DHT22;61000;48.120;11.548;2024-03-07T06:45:37;3.40;99.90
72865;DHT22;61000;48.120;11.548;2024-03-07T06:48:05;3.40;99.90
72865;DHT22;61000;48.120;11.548;2024-03-07T06:50:33;3.40;99.90
72865;DHT22;61000;48.120;11.548;2024-03-07T06:53:00;3.40;99.90
72865;DHT22;61000;48.120;11.548;2024-03-07T06:55:28;3.40;99.90
72865;DHT22;61000;48.120;11.548;2024-03-07T06:57:56;3.40;99.90
72865;DHT22;61000;48.120;11.548;2024-03-07T07:00:23;3.50;99.90
72865;DHT22;61000;48.120;11.548;2024-03-07T07:02:52;3.50;99.90
72865;DHT22;61000;48.120;11.548;2024-03-07T07:05:20;3.50;99.90
72865;DHT22;61000;48.120;11.548;2024-03-07T07:07:48;3.50;99.90
72865;DHT22;61000;48.120;11.548;2024-03-07T07:10:16;3.60;99.90
72865;DHT22;61000;48.120;11.548;2024-03-07T07:12:45;3.60;99.90
72865;DHT22;61000;48.120;11.548;2024-03-07T07:15:14;3.50;99.90
72865;DHT22;61000;48.120;11.548;2024-03-07T07:17:41;3.60;99.90
72865;DHT22;61000;48.120;11.548;2024-03-07T07:20:11;3.60;99.90
72865;DHT22;61000;48.120;11.548;2024-03-07T07:22:40;3.60;99.90
72865;DHT22;61000;48.120;11.548;2024-03-07T07:25:08;3.60;99.90
72865;DHT22;61000;48.120;11.548;2024-03-07T07:27:40;3.70;99.90
72865;DHT22;61000;48.120;11.548;2024-03-07T07:30:11;3.70;99.90
72865;DHT22;61000;48.120;11.548;2024-03-07T07:32:38;3.70;99.90
72865;DHT22;61000;48.120;11.548;2024-03-07T07:35:06;3.60;99.90
72865;DHT22;61000;48.120;11.548;2024-03-07T07:37:37;3.70;99.90
72865;DHT22;61000;48.120;11.548;2024-03-07T07:40:05;3.70;99.90
72865;DHT22;61000;48.120;11.548;2024-03-07T07:42:34;3.80;99.90
72865;DHT22;61000;48.120;11.548;2024-03-07T07:45:06;3.70;99.90
72865;DHT22;61000;48.120;11.548;2024-03-07T07:47:34;3.80;99.90
72865;DHT22;61000;48.120;11.548;2024-03-07T07:50:04;3.80;99.90
72865;DHT22;61000;48.120;11.548;2024-03-07T07:52:32;3.80;99.90
72865;DHT22;61000;48.120;11.548;2024-03-07T07:55:01;3.90;99.90
72865;DHT22;61000;48.120;11.548;2024-03-07T07:57:27;3.90;99.90
72865;DHT22;61000;48.120;11.548;2024-03-07T07:59:54;3.90;99.90
72865;DHT22;61000;48.120;11.548;2024-03-07T08:02:21;4.00;99.90
72865;DHT22;61000;48.120;11.548;2024-03-07T08:04:49;4.00;99.90
72865;DHT22;61000;48.120;11.548;2024-03-07T08:07:16;4.00;99.90
72865;DHT22;61000;48.120;11.548;2024-03-07T08:09:44;4.10;99.90
72865;DHT22;61000;48.120;11.548;2024-03-07T08:12:11;4.20;99.90
72865;DHT22;61000;48.120;11.548;2024-03-07T08:14:38;4.20;99.90
72865;DHT22;61000;48.120;11.548;2024-03-07T08:17:04;4.20;99.90
72865;DHT22;61000;48.120;11.548;2024-03-07T08:19:32;4.20;99.90
72865;DHT22;61000;48.120;11.548;2024-03-07T08:22:00;4.20;99.90
72865;DHT22;61000;48.120;11.548;2024-03-07T08:24:33;4.20;99.90
72865;DHT22;61000;48.120;11.548;2024-03-07T08:27:07;4.30;99.90
72865;DHT22;61000;48.120;11.548;2024-03-07T08:29:36;4.30;99.90
72865;DHT22;61000;48.120;11.548;2024-03-07T08:32:07;4.30;99.90
72865;DHT22;61000;48.120;11.548;2024-03-07T08:34:34;4.40;99.90
72865;DHT22;61000;48.120;11.548;2024-03-07T08:37:03;4.50;99.90
72865;DHT22;61000;48.120;11.548;2024-03-07T08:39:30;4.30;99.90
72865;DHT22;61000;48.120;11.548;2024-03-07T08:41:57;4.20;99.90
72865;DHT22;61000;48.120;11.548;2024-03-07T08:44:26;4.20;99.90
72865;DHT22;61000;48.120;11.548;2024-03-07T08:46:54;4.30;99.90
72865;DHT22;61000;48.120;11.548;2024-03-07T08:49:20;4.40;99.90
72865;DHT22;61000;48.120;11.548;2024-03-07T08:51:48;4.40;99.90
72865;DHT22;61000;48.120;11.548;2024-03-07T08:54:16;4.50;99.90
72865;DHT22;61000;48.120;11.548;2024-03-07T08:56:43;4.50;99.90
72865;DHT22;61000;48.120;11.548;2024-03-07T08:59:10;4.60;99.90
72865;DHT22;61000;48.120;11.548;2024-03-07T09:01:41;4.60;99.90
72865;DHT22;61000;48.120;11.548;2024-03-07T09:04:09;4.70;99.90
72865;DHT22;61000;48.120;11.548;2024-03-07T09:06:37;4.50;99.90
72865;DHT22;61000;48.120;11.548;2024-03-07T09:09:04;4.40;99.90
72865;DHT22;61000;48.120;11.548;2024-03-07T09:11:35;4.50;99.90
72865;DHT22;61000;48.120;11.548;2024-03-07T09:14:03;4.50;99.90
72865;DHT22;61000;48.120;11.548;2024-03-07T09:16:35;4.60;99.90
72865;DHT22;61000;48.120;11.548;2024-03-07T09:19:02;4.60;99.90
72865;DHT22;61000;48.120;11.548;2024-03-07T09:21:29;4.50;99.90
72865;DHT22;61000;48.120;11.548;2024-03-07T09:23:56;4.50;99.90
72865;DHT22;61000;48.120;11.548;2024-03-07T09:26:23;4.60;99.90
72865;DHT22;61000;48.120;11.548;2024-03-07T09:28:52;4.70;99.90
72865;DHT22;61000;48.120;11.548;2024-03-07T09:31:20;4.80;99.90
72865;DHT22;61000;48.120;11.548;2024-03-07T09:33:47;4.90;99.90
72865;DHT22;61000;48.120;11.548;2024-03-07T09:36:15;4.70;99.90
72865;DHT22;61000;48.120;11.548;2024-03-07T09:38:43;4.80;99.90
72865;DHT22;61000;48.120;11.548;2024-03-07T09:41:10;4.80;99.90
72865;DHT22;61000;48.120;11.548;2024-03-07T09:43:38;4.90;99.90
72865;DHT22;61000;48.120;11.548;2024-03-07T09:46:07;5.00;99.90
72865;DHT22;61000;48.120;11.548;2024-03-07T09:48:35;5.10;99.90
72865;DHT22;61000;48.120;11.548;2024-03-07T09:51:04;5.20;99.90
72865;DHT22;61000;48.120;11.548;2024-03-07T09:53:34;5.20;99.90
72865;DHT22;61000;48.120;11.548;2024-03-07T09:56:04;5.20;99.90
72865;DHT22;61000;48.120;11.548;2024-03-07T09:58:33;5.30;99.90
72865;DHT22;61000;48.120;11.548;2024-03-07T10:01:02;5.40;99.90
72865;DHT22;61000;48.120;11.548;2024-03-07T10:03:34;5.40;99.90
72865;DHT22;61000;48.120;11.548;2024-03-07T10:06:02;5.50;99.90
72865;DHT22;61000;48.120;11.548;2024-03-07T10:08:30;5.50;99.90
72865;DHT22;61000;48.120;11.548;2024-03-07T10:10:57;5.40;99.90
72865;DHT22;61000;48.120;11.548;2024-03-07T10:13:26;5.50;99.90
72865;DHT22;61000;48.120;11.548;2024-03-07T10:15:56;5.50;99.90
72865;DHT22;61000;48.120;11.548;2024-03-07T10:18:25;5.50;99.90
72865;DHT22;61000;48.120;11.548;2024-03-07T10:20:54;5.40;99.90
72865;DHT22;61000;48.120;11.548;2024-03-07T10:23:21;5.50;99.90
72865;DHT22;61000;48.120;11.548;2024-03-07T10:25:49;5.50;99.90
72865;DHT22;61000;48.120;11.548;2024-03-07T10:28:16;5.50;99.90
72865;DHT22;61000;48.120;11.548;2024-03-07T10:30:43;5.40;99.90
72865;DHT22;61000;48.120;11.548;2024-03-07T10:33:11;5.30;99.90
72865;DHT22;61000;48.120;11.548;2024-03-07T10:35:39;5.40;99.90
72865;DHT22;61000;48.120;11.548;2024-03-07T10:38:07;5.60;99.90
72865;DHT22;61000;48.120;11.548;2024-03-07T10:40:38;5.60;99.90
72865;DHT22;61000;48.120;11.548;2024-03-07T10:43:09;5.60;99.90
72865;DHT22;61000;48.120;11.548;2024-03-07T10:45:41;5.60;99.90
72865;DHT22;61000;48.120;11.548;2024-03-07T10:48:11;5.70;99.90
72865;DHT22;61000;48.120;11.548;2024-03-07T10:50:47;5.80;99.90
72865;DHT22;61000;48.120;11.548;2024-03-07T10:53:24;5.80;99.90
72865;DHT22;61000;48.120;11.548;2024-03-07T10:56:12;5.80;99.90
72865;DHT22;61000;48.120;11.548;2024-03-07T10:58:53;5.90;99.90
72865;DHT22;61000;48.120;11.548;2024-03-07T11:01:26;5.90;99.90
72865;DHT22;61000;48.120;11.548;2024-03-07T11:03:57;5.80;99.90
72865;DHT22;61000;48.120;11.548;2024-03-07T11:06:25;5.80;99.90
72865;DHT22;61000;48.120;11.548;2024-03-07T11:08:54;5.80;99.90
72865;DHT22;61000;48.120;11.548;2024-03-07T11:11:21;5.80;99.90
72865;DHT22;61000;48.120;11.548;2024-03-07T11:13:51;5.70;99.90
72865;DHT22;61000;48.120;11.548;2024-03-07T11:16:21;5.70;99.90
72865;DHT22;61000;48.120;11.548;2024-03-07T11:19:17;5.80;99.90
72865;DHT22;61000;48.120;11.548;2024-03-07T11:21:47;6.00;99.90
72865;DHT22;61000;48.120;11.548;2024-03-07T11:24:26;6.00;99.90
72865;DHT22;61000;48.120;11.548;2024-03-07T11:26:55;6.10;99.90
72865;DHT22;61000;48.120;11.548;2024-03-07T11:29:41;6.20;99.90
72865;DHT22;61000;48.120;11.548;2024-03-07T11:32:10;6.40;99.90
72865;DHT22;61000;48.120;11.548;2024-03-07T11:34:39;6.50;99.90
72865;DHT22;61000;48.120;11.548;2024-03-07T11:37:08;6.60;99.90
72865;DHT22;61000;48.120;11.548;2024-03-07T11:39:44;6.70;99.90
72865;DHT22;61000;48.120;11.548;2024-03-07T11:42:20;6.70;99.90
72865;DHT22;61000;48.120;11.548;2024-03-07T11:44:49;6.90;99.90
72865;DHT22;61000;48.120;11.548;2024-03-07T11:47:16;7.00;99.90
72865;DHT22;61000;48.120;11.548;2024-03-07T11:49:44;7.30;99.90
72865;DHT22;61000;48.120;11.548;2024-03-07T11:52:14;7.50;99.90
72865;DHT22;61000;48.120;11.548;2024-03-07T11:54:43;7.60;99.90
72865;DHT22;61000;48.120;11.548;2024-03-07T11:57:13;7.50;99.90
72865;DHT22;61000;48.120;11.548;2024-03-07T11:59:41;7.60;99.90
72865;DHT22;61000;48.120;11.548;2024-03-07T12:02:11;7.50;99.90
72865;DHT22;61000;48.120;11.548;2024-03-07T12:04:39;7.30;99.90
72865;DHT22;61000;48.120;11.548;2024-03-07T12:07:07;7.20;99.90
72865;DHT22;61000;48.120;11.548;2024-03-07T12:09:37;7.20;99.90
72865;DHT22;61000;48.120;11.548;2024-03-07T12:12:06;7.20;99.90
72865;DHT22;61000;48.120;11.548;2024-03-07T12:14:33;7.20;99.90
72865;DHT22;61000;48.120;11.548;2024-03-07T12:17:01;7.30;99.90
72865;DHT22;61000;48.120;11.548;2024-03-07T12:19:31;7.30;99.90
72865;DHT22;61000;48.120;11.548;2024-03-07T12:22:00;7.30;99.90
72865;DHT22;61000;48.120;11.548;2024-03-07T12:24:27;7.40;99.90
72865;DHT22;61000;48.120;11.548;2024-03-07T12:27:06;7.40;99.90
72865;DHT22;61000;48.120;11.548;2024-03-07T12:29:35;7.50;99.90
72865;DHT22;61000;48.120;11.548;2024-03-07T12:32:04;7.40;99.90
72865;DHT22;61000;48.120;11.548;2024-03-07T12:34:32;7.30;99.90
72865;DHT22;61000;48.120;11.548;2024-03-07T12:37:02;7.20;99.90
72865;DHT22;61000;48.120;11.548;2024-03-07T12:39:32;7.00;99.90
72865;DHT22;61000;48.120;11.548;2024-03-07T12:42:02;6.90;99.90
72865;DHT22;61000;48.120;11.548;2024-03-07T12:44:40;6.70;99.90
72865;DHT22;61000;48.120;11.548;2024-03-07T12:47:09;6.60;99.90
72865;DHT22;61000;48.120;11.548;2024-03-07T12:49:36;6.70;99.90
72865;DHT22;61000;48.120;11.548;2024-03-07T12:52:05;6.80;99.90
72865;DHT22;61000;48.120;11.548;2024-03-07T12:54:34;6.80;99.90
72865;DHT22;61000;48.120;11.548;2024-03-07T12:57:00;6.80;99.90
72865;DHT22;61000;48.120;11.548;2024-03-07T12:59:31;6.80;99.90
72865;DHT22;61000;48.120;11.548;2024-03-07T13:01:59;6.90;99.90
72865;DHT22;61000;48.120;11.548;2024-03-07T13:04:26;6.90;99.90
72865;DHT22;61000;48.120;11.548;2024-03-07T13:06:53;6.80;99.90
72865;DHT22;61000;48.120;11.548;2024-03-07T13:09:20;6.70;99.90
72865;DHT22;61000;48.120;11.548;2024-03-07T13:11:52;6.80;99.90
72865;DHT22;61000;48.120;11.548;2024-03-07T13:14:19;6.80;99.90
72865;DHT22;61000;48.120;11.548;2024-03-07T13:16:46;6.90;99.90
72865;DHT22;61000;48.120;11.548;2024-03-07T13:19:14;7.00;99.90
72865;DHT22;61000;48.120;11.548;2024-03-07T13:21:46;7.10;99.90
72865;DHT22;61000;48.120;11.548;2024-03-07T13:24:13;7.20;99.90
72865;DHT22;61000;48.120;11.548;2024-03-07T13:26:43;7.20;99.90
72865;DHT22;61000;48.120;11.548;2024-03-07T13:29:10;7.20;99.90
72865;DHT22;61000;48.120;11.548;2024-03-07T13:31:36;7.20;99.90
72865;DHT22;61000;48.120;11.548;2024-03-07T13:34:03;7.10;99.90
72865;DHT22;61000;48.120;11.548;2024-03-07T13:36:31;7.10;99.90
72865;DHT22;61000;48.120;11.548;2024-03-07T13:38:58;7.10;99.90
72865;DHT22;61000;48.120;11.548;2024-03-07T13:41:25;7.10;99.90
72865;DHT22;61000;48.120;11.548;2024-03-07T13:43:54;7.10;99.90
72865;DHT22;61000;48.120;11.548;2024-03-07T13:46:20;7.10;99.90
72865;DHT22;61000;48.120;11.548;2024-03-07T13:48:47;7.10;99.90
72865;DHT22;61000;48.120;11.548;2024-03-07T13:51:14;7.20;99.90
72865;DHT22;61000;48.120;11.548;2024-03-07T13:53:44;7.20;99.90
72865;DHT22;61000;48.120;11.548;2024-03-07T13:56:42;7.10;99.90
72865;DHT22;61000;48.120;11.548;2024-03-07T13:59:31;7.20;99.90
72865;DHT22;61000;48.120;11.548;2024-03-07T14:02:13;7.20;99.90
72865;DHT22;61000;48.120;11.548;2024-03-07T14:08:05;7.20;99.90
72865;DHT22;61000;48.120;11.548;2024-03-07T14:13:53;7.10;99.90
72865;DHT22;61000;48.120;11.548;2024-03-07T14:16:57;7.10;99.90
72865;DHT22;61000;48.120;11.548;2024-03-07T14:19:58;7.10;99.90
72865;DHT22;61000;48.120;11.548;2024-03-07T14:23:04;7.10;99.90
72865;DHT22;61000;48.120;11.548;2024-03-07T14:25:54;7.20;99.90
72865;DHT22;61000;48.120;11.548;2024-03-07T14:28:58;7.10;99.90
72865;DHT22;61000;48.120;11.548;2024-03-07T14:31:29;7.10;99.90
72865;DHT22;61000;48.120;11.548;2024-03-07T14:34:04;7.00;99.90
72865;DHT22;61000;48.120;11.548;2024-03-07T14:36:37;7.00;99.90
72865;DHT22;61000;48.120;11.548;2024-03-07T14:39:05;7.10;99.90
72865;DHT22;61000;48.120;11.548;2024-03-07T14:41:48;7.00;99.90
72865;DHT22;61000;48.120;11.548;2024-03-07T14:44:18;6.90;99.90
72865;DHT22;61000;48.120;11.548;2024-03-07T14:46:47;6.80;99.90
72865;DHT22;61000;48.120;11.548;2024-03-07T14:49:17;6.70;99.90
72865;DHT22;61000;48.120;11.548;2024-03-07T14:51:44;6.80;99.90
72865;DHT22;61000;48.120;11.548;2024-03-07T14:54:12;6.80;99.90
72865;DHT22;61000;48.120;11.548;2024-03-07T14:56:39;6.80;99.90
72865;DHT22;61000;48.120;11.548;2024-03-07T14:59:08;6.90;99.90
72865;DHT22;61000;48.120;11.548;2024-03-07T15:01:35;6.80;99.90
72865;DHT22;61000;48.120;11.548;2024-03-07T15:04:02;6.80;99.90
72865;DHT22;61000;48.120;11.548;2024-03-07T15:06:33;6.70;99.90
72865;DHT22;61000;48.120;11.548;2024-03-07T15:09:00;6.60;99.90
72865;DHT22;61000;48.120;11.548;2024-03-07T15:11:31;6.60;99.90
72865;DHT22;61000;48.120;11.548;2024-03-07T15:14:00;6.60;99.90
72865;DHT22;61000;48.120;11.548;2024-03-07T15:16:31;6.60;99.90
72865;DHT22;61000;48.120;11.548;2024-03-07T15:19:03;6.60;99.90
72865;DHT22;61000;48.120;11.548;2024-03-07T15:21:30;6.60;99.90
72865;DHT22;61000;48.120;11.548;2024-03-07T15:23:57;6.60;99.90
72865;DHT22;61000;48.120;11.548;2024-03-07T15:26:25;6.50;99.90
72865;DHT22;61000;48.120;11.548;2024-03-07T15:28:52;6.50;99.90
72865;DHT22;61000;48.120;11.548;2024-03-07T15:31:22;6.50;99.90
72865;DHT22;61000;48.120;11.548;2024-03-07T15:33:50;6.60;99.90
72865;DHT22;61000;48.120;11.548;2024-03-07T15:36:18;6.60;99.90
72865;DHT22;61000;48.120;11.548;2024-03-07T15:38:47;6.60;99.90
72865;DHT22;61000;48.120;11.548;2024-03-07T15:41:14;6.60;99.90
72865;DHT22;61000;48.120;11.548;2024-03-07T15:43:41;6.60;99.90
72865;DHT22;61000;48.120;11.548;2024-03-07T15:46:11;6.60;99.90
72865;DHT22;61000;48.120;11.548;2024-03-07T15:48:39;6.60;99.90